sensor_id;sensor_type;location;lat;lon;timestamp;P1;durP1;ratioP1;P2;durP2;ratioP2
54189;SDS011;40340;53.208;6.582;2022-07-12T00:01:06;5.60;;;3.93;;
54189;SDS011;40340;53.208;6.582;2022-07-12T00:03:32;5.60;;;4.43;;
54189;SDS011;40340;53.208;6.582;2022-07-12T00:05:59;5.47;;;3.75;;
54189;SDS011;40340;53.208;6.582;2022-07-12T00:08:25;4.82;;;3.80;;
54189;SDS011;40340;53.208;6.582;2022-07-12T00:10:51;6.00;;;3.87;;
54189;SDS011;40340;53.208;6.582;2022-07-12T00:13:17;4.43;;;3.63;;
54189;SDS011;40340;53.208;6.582;2022-07-12T00:15:43;4.83;;;3.70;;
54189;SDS011;40340;53.208;6.582;2022-07-12T00:18:08;6.43;;;4.00;;
54189;SDS011;40340;53.208;6.582;2022-07-12T00:20:35;5.55;;;4.03;;
54189;SDS011;40340;53.208;6.582;2022-07-12T00:23:00;6.17;;;4.53;;
54189;SDS011;40340;53.208;6.582;2022-07-12T00:25:26;6.10;;;4.33;;
54189;SDS011;40340;53.208;6.582;2022-07-12T00:27:52;5.43;;;3.90;;
54189;SDS011;40340;53.208;6.582;2022-07-12T00:30:18;4.33;;;3.50;;
54189;SDS011;40340;53.208;6.582;2022-07-12T00:32:44;3.63;;;3.03;;
54189;SDS011;40340;53.208;6.582;2022-07-12T00:35:09;5.30;;;3.37;;
54189;SDS011;40340;53.208;6.582;2022-07-12T00:37:36;5.07;;;3.55;;
54189;SDS011;40340;53.208;6.582;2022-07-12T00:40:04;4.10;;;3.23;;
54189;SDS011;40340;53.208;6.582;2022-07-12T00:42:31;4.65;;;3.53;;
54189;SDS011;40340;53.208;6.582;2022-07-12T00:44:58;3.95;;;3.45;;
54189;SDS011;40340;53.208;6.582;2022-07-12T00:47:40;4.53;;;3.60;;
54189;SDS011;40340;53.208;6.582;2022-07-12T00:52:44;4.13;;;3.42;;
54189;SDS011;40340;53.208;6.582;2022-07-12T00:55:12;3.95;;;3.40;;
54189;SDS011;40340;53.208;6.582;2022-07-12T00:57:38;4.00;;;3.30;;
54189;SDS011;40340;53.208;6.582;2022-07-12T01:00:06;4.03;;;3.58;;
54189;SDS011;40340;53.208;6.582;2022-07-12T01:02:34;4.85;;;3.75;;
54189;SDS011;40340;53.208;6.582;2022-07-12T01:05:00;4.75;;;3.40;;
54189;SDS011;40340;53.208;6.582;2022-07-12T01:07:28;3.53;;;3.10;;
54189;SDS011;40340;53.208;6.582;2022-07-12T01:09:54;4.67;;;3.63;;
54189;SDS011;40340;53.208;6.582;2022-07-12T01:12:20;5.13;;;2.77;;
54189;SDS011;40340;53.208;6.582;2022-07-12T01:17:13;3.30;;;2.80;;
54189;SDS011;40340;53.208;6.582;2022-07-12T01:19:38;4.87;;;3.00;;
54189;SDS011;40340;53.208;6.582;2022-07-12T01:24:34;3.80;;;2.63;;
54189;SDS011;40340;53.208;6.582;2022-07-12T01:27:00;4.57;;;3.73;;
54189;SDS011;40340;53.208;6.582;2022-07-12T01:29:27;4.22;;;3.40;;
54189;SDS011;40340;53.208;6.582;2022-07-12T01:31:53;5.10;;;3.20;;
54189;SDS011;40340;53.208;6.582;2022-07-12T01:34:19;3.30;;;2.87;;
54189;SDS011;40340;53.208;6.582;2022-07-12T01:39:11;4.53;;;3.40;;
54189;SDS011;40340;53.208;6.582;2022-07-12T01:41:37;4.57;;;3.50;;
54189;SDS011;40340;53.208;6.582;2022-07-12T01:44:03;4.00;;;3.10;;
54189;SDS011;40340;53.208;6.582;2022-07-12T01:46:29;4.03;;;3.20;;
54189;SDS011;40340;53.208;6.582;2022-07-12T01:48:54;5.63;;;3.50;;
54189;SDS011;40340;53.208;6.582;2022-07-12T01:51:21;3.88;;;3.17;;
54189;SDS011;40340;53.208;6.582;2022-07-12T01:53:47;4.07;;;3.37;;
54189;SDS011;40340;53.208;6.582;2022-07-12T01:56:12;4.17;;;3.37;;
54189;SDS011;40340;53.208;6.582;2022-07-12T02:01:04;3.97;;;3.15;;
54189;SDS011;40340;53.208;6.582;2022-07-12T02:03:33;4.97;;;3.57;;
54189;SDS011;40340;53.208;6.582;2022-07-12T02:06:00;4.38;;;3.47;;
54189;SDS011;40340;53.208;6.582;2022-07-12T02:08:25;4.07;;;3.20;;
54189;SDS011;40340;53.208;6.582;2022-07-12T02:10:51;3.93;;;3.30;;
54189;SDS011;40340;53.208;6.582;2022-07-12T02:13:17;5.27;;;3.47;;
54189;SDS011;40340;53.208;6.582;2022-07-12T02:15:42;4.50;;;3.20;;
54189;SDS011;40340;53.208;6.582;2022-07-12T02:18:08;4.60;;;3.87;;
54189;SDS011;40340;53.208;6.582;2022-07-12T02:20:33;4.10;;;3.20;;
54189;SDS011;40340;53.208;6.582;2022-07-12T02:22:59;4.07;;;3.50;;
54189;SDS011;40340;53.208;6.582;2022-07-12T02:25:25;4.10;;;3.40;;
54189;SDS011;40340;53.208;6.582;2022-07-12T02:27:50;4.87;;;3.67;;
54189;SDS011;40340;53.208;6.582;2022-07-12T02:30:16;4.57;;;3.23;;
54189;SDS011;40340;53.208;6.582;2022-07-12T02:32:41;4.10;;;2.87;;
54189;SDS011;40340;53.208;6.582;2022-07-12T02:35:07;4.27;;;3.30;;
54189;SDS011;40340;53.208;6.582;2022-07-12T02:37:33;6.00;;;4.20;;
54189;SDS011;40340;53.208;6.582;2022-07-12T02:39:58;4.53;;;3.50;;
54189;SDS011;40340;53.208;6.582;2022-07-12T02:42:42;4.25;;;3.42;;
54189;SDS011;40340;53.208;6.582;2022-07-12T02:45:09;5.13;;;4.00;;
54189;SDS011;40340;53.208;6.582;2022-07-12T02:47:38;4.03;;;3.53;;
54189;SDS011;40340;53.208;6.582;2022-07-12T02:50:05;6.13;;;4.13;;
54189;SDS011;40340;53.208;6.582;2022-07-12T02:52:31;5.88;;;4.18;;
54189;SDS011;40340;53.208;6.582;2022-07-12T02:54:57;7.27;;;4.10;;
54189;SDS011;40340;53.208;6.582;2022-07-12T02:57:23;5.17;;;3.53;;
54189;SDS011;40340;53.208;6.582;2022-07-12T02:59:48;4.47;;;3.77;;
54189;SDS011;40340;53.208;6.582;2022-07-12T03:02:15;4.32;;;3.80;;
54189;SDS011;40340;53.208;6.582;2022-07-12T03:04:40;4.53;;;4.03;;
54189;SDS011;40340;53.208;6.582;2022-07-12T03:07:06;5.67;;;4.73;;
54189;SDS011;40340;53.208;6.582;2022-07-12T03:09:31;9.60;;;5.03;;
54189;SDS011;40340;53.208;6.582;2022-07-12T03:11:57;6.07;;;4.53;;
54189;SDS011;40340;53.208;6.582;2022-07-12T03:14:23;8.63;;;4.75;;
54189;SDS011;40340;53.208;6.582;2022-07-12T03:16:48;5.60;;;4.90;;
54189;SDS011;40340;53.208;6.582;2022-07-12T03:19:14;5.75;;;4.80;;
54189;SDS011;40340;53.208;6.582;2022-07-12T03:21:40;7.43;;;5.80;;
54189;SDS011;40340;53.208;6.582;2022-07-12T03:24:05;8.83;;;5.17;;
54189;SDS011;40340;53.208;6.582;2022-07-12T03:26:31;5.90;;;5.03;;
54189;SDS011;40340;53.208;6.582;2022-07-12T03:28:57;9.57;;;5.53;;
54189;SDS011;40340;53.208;6.582;2022-07-12T03:31:25;6.88;;;5.47;;
54189;SDS011;40340;53.208;6.582;2022-07-12T03:33:51;14.90;;;6.23;;
54189;SDS011;40340;53.208;6.582;2022-07-12T03:36:17;6.87;;;5.90;;
54189;SDS011;40340;53.208;6.582;2022-07-12T03:38:42;7.32;;;5.75;;
54189;SDS011;40340;53.208;6.582;2022-07-12T03:41:08;6.60;;;5.67;;
54189;SDS011;40340;53.208;6.582;2022-07-12T03:43:34;7.80;;;6.43;;
54189;SDS011;40340;53.208;6.582;2022-07-12T03:45:59;9.33;;;6.17;;
54189;SDS011;40340;53.208;6.582;2022-07-12T03:48:25;7.78;;;5.95;;
54189;SDS011;40340;53.208;6.582;2022-07-12T03:50:51;9.60;;;5.97;;
54189;SDS011;40340;53.208;6.582;2022-07-12T03:53:16;8.87;;;6.70;;
54189;SDS011;40340;53.208;6.582;2022-07-12T03:55:42;8.03;;;6.83;;
54189;SDS011;40340;53.208;6.582;2022-07-12T03:58:08;8.33;;;6.87;;
54189;SDS011;40340;53.208;6.582;2022-07-12T04:00:33;7.77;;;6.47;;
54189;SDS011;40340;53.208;6.582;2022-07-12T04:02:59;9.23;;;5.97;;
54189;SDS011;40340;53.208;6.582;2022-07-12T04:05:24;9.80;;;7.13;;
54189;SDS011;40340;53.208;6.582;2022-07-12T04:07:53;11.13;;;7.40;;
54189;SDS011;40340;53.208;6.582;2022-07-12T04:10:19;8.18;;;7.35;;
54189;SDS011;40340;53.208;6.582;2022-07-12T04:12:45;21.80;;;8.20;;
54189;SDS011;40340;53.208;6.582;2022-07-12T04:15:11;9.67;;;7.83;;
54189;SDS011;40340;53.208;6.582;2022-07-12T04:17:37;24.63;;;8.70;;
54189;SDS011;40340;53.208;6.582;2022-07-12T04:20:03;12.00;;;8.37;;
54189;SDS011;40340;53.208;6.582;2022-07-12T04:22:31;27.85;;;8.80;;
54189;SDS011;40340;53.208;6.582;2022-07-12T04:24:57;15.70;;;8.40;;
54189;SDS011;40340;53.208;6.582;2022-07-12T04:27:22;11.67;;;8.37;;
54189;SDS011;40340;53.208;6.582;2022-07-12T04:29:48;11.23;;;8.80;;
54189;SDS011;40340;53.208;6.582;2022-07-12T04:32:14;10.83;;;8.30;;
54189;SDS011;40340;53.208;6.582;2022-07-12T04:34:39;14.43;;;8.55;;
54189;SDS011;40340;53.208;6.582;2022-07-12T04:37:05;9.38;;;7.35;;
54189;SDS011;40340;53.208;6.582;2022-07-12T04:39:30;11.03;;;7.30;;
54189;SDS011;40340;53.208;6.582;2022-07-12T04:41:56;8.13;;;6.87;;
54189;SDS011;40340;53.208;6.582;2022-07-12T04:44:22;10.03;;;6.07;;
54189;SDS011;40340;53.208;6.582;2022-07-12T04:46:47;11.67;;;6.97;;
54189;SDS011;40340;53.208;6.582;2022-07-12T04:49:13;13.60;;;5.23;;
54189;SDS011;40340;53.208;6.582;2022-07-12T04:51:39;18.03;;;6.57;;
54189;SDS011;40340;53.208;6.582;2022-07-12T04:54:04;10.37;;;5.90;;
54189;SDS011;40340;53.208;6.582;2022-07-12T04:56:30;11.53;;;7.07;;
54189;SDS011;40340;53.208;6.582;2022-07-12T04:58:55;10.63;;;7.57;;
54189;SDS011;40340;53.208;6.582;2022-07-12T05:01:21;9.97;;;7.20;;
54189;SDS011;40340;53.208;6.582;2022-07-12T05:03:47;15.60;;;7.07;;
54189;SDS011;40340;53.208;6.582;2022-07-12T05:06:13;13.30;;;7.20;;
54189;SDS011;40340;53.208;6.582;2022-07-12T05:08:38;14.83;;;7.80;;
54189;SDS011;40340;53.208;6.582;2022-07-12T05:11:04;12.70;;;7.85;;
54189;SDS011;40340;53.208;6.582;2022-07-12T05:13:30;12.90;;;7.63;;
54189;SDS011;40340;53.208;6.582;2022-07-12T05:15:55;10.83;;;7.87;;
54189;SDS011;40340;53.208;6.582;2022-07-12T05:18:21;10.87;;;7.33;;
54189;SDS011;40340;53.208;6.582;2022-07-12T05:20:47;12.47;;;7.87;;
54189;SDS011;40340;53.208;6.582;2022-07-12T05:23:13;11.27;;;8.17;;
54189;SDS011;40340;53.208;6.582;2022-07-12T05:25:39;13.07;;;8.03;;
54189;SDS011;40340;53.208;6.582;2022-07-12T05:28:04;11.20;;;7.90;;
54189;SDS011;40340;53.208;6.582;2022-07-12T05:30:30;8.40;;;6.28;;
54189;SDS011;40340;53.208;6.582;2022-07-12T05:32:56;9.37;;;6.60;;
54189;SDS011;40340;53.208;6.582;2022-07-12T05:35:22;6.38;;;5.20;;
54189;SDS011;40340;53.208;6.582;2022-07-12T05:37:48;7.20;;;5.77;;
54189;SDS011;40340;53.208;6.582;2022-07-12T05:40:13;7.60;;;5.60;;
54189;SDS011;40340;53.208;6.582;2022-07-12T05:42:39;7.23;;;5.30;;
54189;SDS011;40340;53.208;6.582;2022-07-12T05:45:05;7.57;;;5.33;;
54189;SDS011;40340;53.208;6.582;2022-07-12T05:47:31;5.93;;;4.82;;
54189;SDS011;40340;53.208;6.582;2022-07-12T05:49:56;5.43;;;4.60;;
54189;SDS011;40340;53.208;6.582;2022-07-12T05:52:22;6.40;;;4.80;;
54189;SDS011;40340;53.208;6.582;2022-07-12T05:55:06;5.85;;;4.80;;
54189;SDS011;40340;53.208;6.582;2022-07-12T05:57:32;6.00;;;4.70;;
54189;SDS011;40340;53.208;6.582;2022-07-12T05:59:57;7.13;;;5.10;;
54189;SDS011;40340;53.208;6.582;2022-07-12T06:02:23;5.60;;;4.40;;
54189;SDS011;40340;53.208;6.582;2022-07-12T06:04:48;5.97;;;4.53;;
54189;SDS011;40340;53.208;6.582;2022-07-12T06:07:14;6.13;;;4.87;;
54189;SDS011;40340;53.208;6.582;2022-07-12T06:09:40;6.90;;;4.90;;
54189;SDS011;40340;53.208;6.582;2022-07-12T06:12:05;7.20;;;4.97;;
54189;SDS011;40340;53.208;6.582;2022-07-12T06:14:31;6.53;;;4.90;;
54189;SDS011;40340;53.208;6.582;2022-07-12T06:16:57;5.63;;;4.80;;
54189;SDS011;40340;53.208;6.582;2022-07-12T06:19:23;7.20;;;4.73;;
54189;SDS011;40340;53.208;6.582;2022-07-12T06:21:49;5.77;;;4.80;;
54189;SDS011;40340;53.208;6.582;2022-07-12T06:24:14;5.40;;;4.43;;
54189;SDS011;40340;53.208;6.582;2022-07-12T06:26:40;6.00;;;4.97;;
54189;SDS011;40340;53.208;6.582;2022-07-12T06:29:06;5.50;;;4.47;;
54189;SDS011;40340;53.208;6.582;2022-07-12T06:31:31;6.00;;;4.40;;
54189;SDS011;40340;53.208;6.582;2022-07-12T06:33:59;5.20;;;4.07;;
54189;SDS011;40340;53.208;6.582;2022-07-12T06:36:24;4.80;;;3.50;;
54189;SDS011;40340;53.208;6.582;2022-07-12T06:38:50;4.93;;;3.70;;
54189;SDS011;40340;53.208;6.582;2022-07-12T06:41:16;4.53;;;3.90;;
54189;SDS011;40340;53.208;6.582;2022-07-12T06:43:42;5.90;;;3.83;;
54189;SDS011;40340;53.208;6.582;2022-07-12T06:46:07;6.83;;;3.40;;
54189;SDS011;40340;53.208;6.582;2022-07-12T06:48:33;8.77;;;3.70;;
54189;SDS011;40340;53.208;6.582;2022-07-12T06:50:58;5.83;;;4.00;;
54189;SDS011;40340;53.208;6.582;2022-07-12T06:53:24;4.80;;;3.80;;
54189;SDS011;40340;53.208;6.582;2022-07-12T06:55:50;4.33;;;3.57;;
54189;SDS011;40340;53.208;6.582;2022-07-12T06:58:15;4.63;;;3.67;;
54189;SDS011;40340;53.208;6.582;2022-07-12T07:00:41;4.53;;;3.23;;
54189;SDS011;40340;53.208;6.582;2022-07-12T07:03:07;4.80;;;3.33;;
54189;SDS011;40340;53.208;6.582;2022-07-12T07:08:01;4.50;;;3.90;;
54189;SDS011;40340;53.208;6.582;2022-07-12T07:10:27;5.10;;;3.72;;
54189;SDS011;40340;53.208;6.582;2022-07-12T07:12:53;7.00;;;3.73;;
54189;SDS011;40340;53.208;6.582;2022-07-12T07:15:18;5.03;;;2.93;;
54189;SDS011;40340;53.208;6.582;2022-07-12T07:17:44;3.97;;;3.10;;
54189;SDS011;40340;53.208;6.582;2022-07-12T07:20:10;3.67;;;2.97;;
54189;SDS011;40340;53.208;6.582;2022-07-12T07:22:36;4.50;;;3.13;;
54189;SDS011;40340;53.208;6.582;2022-07-12T07:25:02;4.33;;;3.03;;
54189;SDS011;40340;53.208;6.582;2022-07-12T07:27:28;3.63;;;2.97;;
54189;SDS011;40340;53.208;6.582;2022-07-12T07:29:54;4.90;;;3.50;;
54189;SDS011;40340;53.208;6.582;2022-07-12T07:32:38;4.45;;;2.47;;
54189;SDS011;40340;53.208;6.582;2022-07-12T07:35:04;3.50;;;2.63;;
54189;SDS011;40340;53.208;6.582;2022-07-12T07:39:56;2.80;;;2.20;;
54189;SDS011;40340;53.208;6.582;2022-07-12T07:42:22;3.20;;;2.37;;
54189;SDS011;40340;53.208;6.582;2022-07-12T07:44:48;3.43;;;2.30;;
54189;SDS011;40340;53.208;6.582;2022-07-12T07:47:13;3.13;;;2.63;;
54189;SDS011;40340;53.208;6.582;2022-07-12T07:49:39;4.10;;;2.70;;
54189;SDS011;40340;53.208;6.582;2022-07-12T07:52:05;3.33;;;2.30;;
54189;SDS011;40340;53.208;6.582;2022-07-12T07:54:31;4.80;;;2.20;;
54189;SDS011;40340;53.208;6.582;2022-07-12T07:56:56;4.13;;;2.63;;
54189;SDS011;40340;53.208;6.582;2022-07-12T07:59:22;3.97;;;2.20;;
54189;SDS011;40340;53.208;6.582;2022-07-12T08:01:47;3.43;;;2.20;;
54189;SDS011;40340;53.208;6.582;2022-07-12T08:04:17;3.70;;;2.83;;
54189;SDS011;40340;53.208;6.582;2022-07-12T08:06:44;3.88;;;2.45;;
54189;SDS011;40340;53.208;6.582;2022-07-12T08:09:11;3.45;;;2.50;;
54189;SDS011;40340;53.208;6.582;2022-07-12T08:11:37;4.38;;;2.42;;
54189;SDS011;40340;53.208;6.582;2022-07-12T08:14:03;4.47;;;2.30;;
54189;SDS011;40340;53.208;6.582;2022-07-12T08:16:30;2.78;;;2.28;;
54189;SDS011;40340;53.208;6.582;2022-07-12T08:18:56;6.15;;;2.97;;
54189;SDS011;40340;53.208;6.582;2022-07-12T08:21:22;3.42;;;2.30;;
54189;SDS011;40340;53.208;6.582;2022-07-12T08:23:49;4.28;;;2.30;;
54189;SDS011;40340;53.208;6.582;2022-07-12T08:26:15;3.00;;;2.15;;
54189;SDS011;40340;53.208;6.582;2022-07-12T08:28:41;4.13;;;2.20;;
54189;SDS011;40340;53.208;6.582;2022-07-12T08:31:07;3.77;;;2.10;;
54189;SDS011;40340;53.208;6.582;2022-07-12T08:33:33;3.77;;;2.00;;
54189;SDS011;40340;53.208;6.582;2022-07-12T08:35:59;4.70;;;2.23;;
54189;SDS011;40340;53.208;6.582;2022-07-12T08:38:24;3.00;;;2.37;;
54189;SDS011;40340;53.208;6.582;2022-07-12T08:40:50;4.10;;;2.50;;
54189;SDS011;40340;53.208;6.582;2022-07-12T08:43:15;3.10;;;2.20;;
54189;SDS011;40340;53.208;6.582;2022-07-12T08:45:41;5.87;;;2.47;;
54189;SDS011;40340;53.208;6.582;2022-07-12T08:48:07;3.97;;;2.60;;
54189;SDS011;40340;53.208;6.582;2022-07-12T08:50:33;4.20;;;2.50;;
54189;SDS011;40340;53.208;6.582;2022-07-12T08:52:59;3.63;;;2.20;;
54189;SDS011;40340;53.208;6.582;2022-07-12T08:57:52;4.80;;;2.42;;
54189;SDS011;40340;53.208;6.582;2022-07-12T09:00:19;4.15;;;2.88;;
54189;SDS011;40340;53.208;6.582;2022-07-12T09:02:50;2.70;;;2.30;;
54189;SDS011;40340;53.208;6.582;2022-07-12T09:05:27;4.18;;;2.70;;
54189;SDS011;40340;53.208;6.582;2022-07-12T09:08:06;4.13;;;2.50;;
54189;SDS011;40340;53.208;6.582;2022-07-12T09:10:33;3.40;;;2.33;;
54189;SDS011;40340;53.208;6.582;2022-07-12T09:13:00;2.60;;;2.10;;
54189;SDS011;40340;53.208;6.582;2022-07-12T09:15:26;4.60;;;2.38;;
54189;SDS011;40340;53.208;6.582;2022-07-12T09:17:56;3.60;;;2.60;;
54189;SDS011;40340;53.208;6.582;2022-07-12T09:20:38;3.08;;;2.22;;
54189;SDS011;40340;53.208;6.582;2022-07-12T09:23:08;3.83;;;2.85;;
54189;SDS011;40340;53.208;6.582;2022-07-12T09:25:36;7.53;;;3.00;;
54189;SDS011;40340;53.208;6.582;2022-07-12T09:28:03;5.78;;;3.33;;
54189;SDS011;40340;53.208;6.582;2022-07-12T09:30:34;4.05;;;3.17;;
54189;SDS011;40340;53.208;6.582;2022-07-12T09:33:03;5.55;;;2.55;;
54189;SDS011;40340;53.208;6.582;2022-07-12T09:38:39;3.08;;;2.03;;
54189;SDS011;40340;53.208;6.582;2022-07-12T09:41:17;6.22;;;2.20;;
54189;SDS011;40340;53.208;6.582;2022-07-12T09:43:44;2.80;;;2.20;;
54189;SDS011;40340;53.208;6.582;2022-07-12T09:48:37;5.28;;;2.50;;
54189;SDS011;40340;53.208;6.582;2022-07-12T09:51:03;5.00;;;3.10;;
54189;SDS011;40340;53.208;6.582;2022-07-12T09:53:31;4.10;;;2.40;;
54189;SDS011;40340;53.208;6.582;2022-07-12T09:56:03;3.65;;;2.60;;
54189;SDS011;40340;53.208;6.582;2022-07-12T09:58:31;3.10;;;2.20;;
54189;SDS011;40340;53.208;6.582;2022-07-12T10:01:12;3.70;;;2.42;;
54189;SDS011;40340;53.208;6.582;2022-07-12T10:03:41;8.75;;;2.35;;
54189;SDS011;40340;53.208;6.582;2022-07-12T10:06:07;2.88;;;2.20;;
54189;SDS011;40340;53.208;6.582;2022-07-12T10:08:34;3.90;;;2.00;;
54189;SDS011;40340;53.208;6.582;2022-07-12T10:11:00;5.55;;;1.95;;
54189;SDS011;40340;53.208;6.582;2022-07-12T10:13:26;2.95;;;1.85;;
54189;SDS011;40340;53.208;6.582;2022-07-12T10:15:59;3.33;;;1.80;;
54189;SDS011;40340;53.208;6.582;2022-07-12T10:18:26;3.42;;;1.48;;
54189;SDS011;40340;53.208;6.582;2022-07-12T10:20:52;4.88;;;1.60;;
54189;SDS011;40340;53.208;6.582;2022-07-12T10:23:28;3.80;;;1.70;;
54189;SDS011;40340;53.208;6.582;2022-07-12T10:25:56;4.13;;;1.30;;
54189;SDS011;40340;53.208;6.582;2022-07-12T10:28:23;1.92;;;1.20;;
54189;SDS011;40340;53.208;6.582;2022-07-12T10:31:28;2.05;;;1.20;;
54189;SDS011;40340;53.208;6.582;2022-07-12T10:34:06;1.60;;;1.10;;
54189;SDS011;40340;53.208;6.582;2022-07-12T10:39:21;1.48;;;1.00;;
54189;SDS011;40340;53.208;6.582;2022-07-12T10:47:02;1.63;;;1.00;;
54189;SDS011;40340;53.208;6.582;2022-07-12T10:49:29;1.80;;;1.15;;
54189;SDS011;40340;53.208;6.582;2022-07-12T10:57:06;1.92;;;0.80;;
54189;SDS011;40340;53.208;6.582;2022-07-12T10:59:33;2.13;;;0.80;;
54189;SDS011;40340;53.208;6.582;2022-07-12T11:02:01;1.63;;;0.60;;
54189;SDS011;40340;53.208;6.582;2022-07-12T11:04:26;1.40;;;0.80;;
54189;SDS011;40340;53.208;6.582;2022-07-12T11:09:23;1.98;;;0.80;;
54189;SDS011;40340;53.208;6.582;2022-07-12T11:11:50;2.05;;;0.80;;
54189;SDS011;40340;53.208;6.582;2022-07-12T11:14:24;1.00;;;0.70;;
54189;SDS011;40340;53.208;6.582;2022-07-12T11:16:59;1.20;;;0.50;;
54189;SDS011;40340;53.208;6.582;2022-07-12T11:21:54;3.80;;;0.50;;
54189;SDS011;40340;53.208;6.582;2022-07-12T11:24:22;3.03;;;0.80;;
54189;SDS011;40340;53.208;6.582;2022-07-12T11:26:52;0.88;;;0.50;;
54189;SDS011;40340;53.208;6.582;2022-07-12T11:29:18;0.90;;;0.57;;
54189;SDS011;40340;53.208;6.582;2022-07-12T11:31:44;1.35;;;0.70;;
54189;SDS011;40340;53.208;6.582;2022-07-12T11:36:47;1.40;;;0.95;;
54189;SDS011;40340;53.208;6.582;2022-07-12T11:39:15;3.85;;;0.70;;
54189;SDS011;40340;53.208;6.582;2022-07-12T11:41:53;1.85;;;0.90;;
54189;SDS011;40340;53.208;6.582;2022-07-12T11:44:20;3.67;;;0.90;;
54189;SDS011;40340;53.208;6.582;2022-07-12T11:46:50;3.40;;;1.23;;
54189;SDS011;40340;53.208;6.582;2022-07-12T11:49:17;2.90;;;0.75;;
54189;SDS011;40340;53.208;6.582;2022-07-12T11:51:42;1.25;;;0.73;;
54189;SDS011;40340;53.208;6.582;2022-07-12T11:54:10;1.70;;;0.60;;
54189;SDS011;40340;53.208;6.582;2022-07-12T11:56:35;1.42;;;0.68;;
54189;SDS011;40340;53.208;6.582;2022-07-12T11:59:01;1.25;;;0.60;;
54189;SDS011;40340;53.208;6.582;2022-07-12T12:03:52;2.78;;;1.05;;
54189;SDS011;40340;53.208;6.582;2022-07-12T12:08:43;2.55;;;0.70;;
54189;SDS011;40340;53.208;6.582;2022-07-12T12:11:10;2.45;;;1.00;;
54189;SDS011;40340;53.208;6.582;2022-07-12T12:16:03;1.15;;;0.50;;
54189;SDS011;40340;53.208;6.582;2022-07-12T12:18:37;0.82;;;0.50;;
54189;SDS011;40340;53.208;6.582;2022-07-12T12:21:11;1.75;;;0.80;;
54189;SDS011;40340;53.208;6.582;2022-07-12T12:23:38;1.25;;;0.57;;
54189;SDS011;40340;53.208;6.582;2022-07-12T12:26:12;1.30;;;0.50;;
54189;SDS011;40340;53.208;6.582;2022-07-12T12:31:11;2.38;;;0.52;;
54189;SDS011;40340;53.208;6.582;2022-07-12T12:33:48;3.10;;;0.60;;
54189;SDS011;40340;53.208;6.582;2022-07-12T12:38:50;3.92;;;0.80;;
54189;SDS011;40340;53.208;6.582;2022-07-12T12:41:17;3.22;;;1.00;;
54189;SDS011;40340;53.208;6.582;2022-07-12T12:43:44;2.40;;;0.80;;
54189;SDS011;40340;53.208;6.582;2022-07-12T12:48:36;3.40;;;0.60;;
54189;SDS011;40340;53.208;6.582;2022-07-12T12:53:35;1.42;;;0.80;;
54189;SDS011;40340;53.208;6.582;2022-07-12T12:56:07;2.30;;;0.63;;
54189;SDS011;40340;53.208;6.582;2022-07-12T12:58:37;2.95;;;0.57;;
54189;SDS011;40340;53.208;6.582;2022-07-12T13:01:04;1.88;;;0.65;;
54189;SDS011;40340;53.208;6.582;2022-07-12T13:03:30;2.97;;;0.50;;
54189;SDS011;40340;53.208;6.582;2022-07-12T13:05:56;1.70;;;0.70;;
54189;SDS011;40340;53.208;6.582;2022-07-12T13:08:23;1.60;;;0.80;;
54189;SDS011;40340;53.208;6.582;2022-07-12T13:10:49;1.83;;;0.98;;
54189;SDS011;40340;53.208;6.582;2022-07-12T13:13:35;1.30;;;0.65;;
54189;SDS011;40340;53.208;6.582;2022-07-12T13:16:01;1.23;;;0.60;;
54189;SDS011;40340;53.208;6.582;2022-07-12T13:20:53;3.10;;;0.82;;
54189;SDS011;40340;53.208;6.582;2022-07-12T13:25:44;3.42;;;1.00;;
54189;SDS011;40340;53.208;6.582;2022-07-12T13:30:36;3.95;;;1.10;;
54189;SDS011;40340;53.208;6.582;2022-07-12T13:35:27;4.05;;;1.40;;
54189;SDS011;40340;53.208;6.582;2022-07-12T13:37:55;3.60;;;1.20;;
54189;SDS011;40340;53.208;6.582;2022-07-12T13:42:48;2.72;;;1.20;;
54189;SDS011;40340;53.208;6.582;2022-07-12T13:45:16;1.92;;;1.20;;
54189;SDS011;40340;53.208;6.582;2022-07-12T13:47:45;3.47;;;1.20;;
54189;SDS011;40340;53.208;6.582;2022-07-12T13:50:13;6.70;;;1.30;;
54189;SDS011;40340;53.208;6.582;2022-07-12T13:52:40;2.38;;;1.20;;
54189;SDS011;40340;53.208;6.582;2022-07-12T13:55:07;2.78;;;0.95;;
54189;SDS011;40340;53.208;6.582;2022-07-12T13:57:35;2.03;;;1.00;;
54189;SDS011;40340;53.208;6.582;2022-07-12T14:00:01;2.08;;;0.90;;
54189;SDS011;40340;53.208;6.582;2022-07-12T14:04:53;3.30;;;1.00;;
54189;SDS011;40340;53.208;6.582;2022-07-12T14:09:45;2.75;;;1.50;;
54189;SDS011;40340;53.208;6.582;2022-07-12T14:12:11;2.33;;;1.10;;
54189;SDS011;40340;53.208;6.582;2022-07-12T14:14:36;2.05;;;1.05;;
54189;SDS011;40340;53.208;6.582;2022-07-12T14:17:21;1.65;;;1.13;;
54189;SDS011;40340;53.208;6.582;2022-07-12T14:22:13;4.55;;;1.10;;
54189;SDS011;40340;53.208;6.582;2022-07-12T14:24:38;4.57;;;1.02;;
54189;SDS011;40340;53.208;6.582;2022-07-12T14:27:04;1.85;;;1.02;;
54189;SDS011;40340;53.208;6.582;2022-07-12T14:29:31;1.40;;;0.90;;
54189;SDS011;40340;53.208;6.582;2022-07-12T14:31:56;2.10;;;1.13;;
54189;SDS011;40340;53.208;6.582;2022-07-12T14:36:49;2.40;;;1.10;;
54189;SDS011;40340;53.208;6.582;2022-07-12T14:39:14;2.88;;;1.10;;
54189;SDS011;40340;53.208;6.582;2022-07-12T14:41:40;5.60;;;1.55;;
54189;SDS011;40340;53.208;6.582;2022-07-12T14:44:06;3.65;;;1.40;;
54189;SDS011;40340;53.208;6.582;2022-07-12T14:46:32;2.10;;;1.45;;
54189;SDS011;40340;53.208;6.582;2022-07-12T14:49:02;2.30;;;1.10;;
54189;SDS011;40340;53.208;6.582;2022-07-12T14:53:54;2.63;;;1.23;;
54189;SDS011;40340;53.208;6.582;2022-07-12T14:56:20;1.90;;;1.10;;
54189;SDS011;40340;53.208;6.582;2022-07-12T14:58:45;4.43;;;1.10;;
54189;SDS011;40340;53.208;6.582;2022-07-12T15:01:11;1.77;;;1.10;;
54189;SDS011;40340;53.208;6.582;2022-07-12T15:03:37;4.97;;;1.42;;
54189;SDS011;40340;53.208;6.582;2022-07-12T15:06:02;3.10;;;1.03;;
54189;SDS011;40340;53.208;6.582;2022-07-12T15:08:28;3.53;;;1.20;;
54189;SDS011;40340;53.208;6.582;2022-07-12T15:10:55;2.60;;;1.27;;
54189;SDS011;40340;53.208;6.582;2022-07-12T15:13:22;2.33;;;1.10;;
54189;SDS011;40340;53.208;6.582;2022-07-12T15:15:48;3.03;;;1.13;;
54189;SDS011;40340;53.208;6.582;2022-07-12T15:20:40;3.63;;;1.10;;
54189;SDS011;40340;53.208;6.582;2022-07-12T15:23:05;2.00;;;1.20;;
54189;SDS011;40340;53.208;6.582;2022-07-12T15:25:31;3.13;;;0.90;;
54189;SDS011;40340;53.208;6.582;2022-07-12T15:27:57;4.20;;;1.13;;
54189;SDS011;40340;53.208;6.582;2022-07-12T15:30:23;2.15;;;0.98;;
54189;SDS011;40340;53.208;6.582;2022-07-12T15:32:48;2.72;;;0.90;;
54189;SDS011;40340;53.208;6.582;2022-07-12T15:35:16;2.40;;;0.90;;
54189;SDS011;40340;53.208;6.582;2022-07-12T15:37:41;1.23;;;0.70;;
54189;SDS011;40340;53.208;6.582;2022-07-12T15:40:07;1.10;;;0.60;;
54189;SDS011;40340;53.208;6.582;2022-07-12T15:44:59;6.45;;;0.60;;
54189;SDS011;40340;53.208;6.582;2022-07-12T15:47:24;2.63;;;0.80;;
54189;SDS011;40340;53.208;6.582;2022-07-12T15:49:50;1.55;;;0.60;;
54189;SDS011;40340;53.208;6.582;2022-07-12T15:52:16;1.58;;;0.70;;
54189;SDS011;40340;53.208;6.582;2022-07-12T15:55:00;2.50;;;0.80;;
54189;SDS011;40340;53.208;6.582;2022-07-12T15:57:26;3.55;;;0.70;;
54189;SDS011;40340;53.208;6.582;2022-07-12T15:59:52;1.75;;;0.82;;
54189;SDS011;40340;53.208;6.582;2022-07-12T16:02:18;3.80;;;0.70;;
54189;SDS011;40340;53.208;6.582;2022-07-12T16:04:44;2.30;;;0.70;;
54189;SDS011;40340;53.208;6.582;2022-07-12T16:07:09;2.90;;;1.00;;
54189;SDS011;40340;53.208;6.582;2022-07-12T16:09:37;3.63;;;1.40;;
54189;SDS011;40340;53.208;6.582;2022-07-12T16:12:03;5.22;;;1.83;;
54189;SDS011;40340;53.208;6.582;2022-07-12T16:14:28;2.23;;;1.80;;
54189;SDS011;40340;53.208;6.582;2022-07-12T16:16:54;2.97;;;1.70;;